Time;durP1;ratioP1;P1;durP2;ratioP2;P2;SDS_P1;SDS_P2;PMS_P1;PMS_P2;Temp;Humidity;BMP_temperature;BMP_pressure;BME280_temperature;BME280_humidity;BME280_pressure;Samples;Min_cycle;Max_cycle;Signal;HPM_P1;HPM_P2
2022/10/20 00:00:20;;;;;;;3.15;0.70;;;4.60;72.60;;;;;;4201550;28;20033;-82
2022/10/20 00:02:21;;;;;;;1.05;0.60;;;4.60;72.70;;;;;;4194984;28;20029;-83
2022/10/20 00:04:22;;;;;;;1.13;0.52;;;4.60;72.70;;;;;;4200329;28;20041;-81
2022/10/20 00:06:25;;;;;;;2.45;0.70;;;4.60;72.80;;;;;;4203643;28;20091;-82
2022/10/20 00:08:26;;;;;;;1.50;0.50;;;4.60;72.90;;;;;;4197480;28;20416;-81
2022/10/20 00:10:26;;;;;;;4.15;0.68;;;4.60;73.00;;;;;;4194691;28;20021;-83
2022/10/20 00:12:27;;;;;;;1.42;0.70;;;4.60;73.10;;;;;;4196413;28;20033;-82
2022/10/20 00:14:28;;;;;;;1.35;0.65;;;4.60;73.10;;;;;;4199676;28;20081;-82
2022/10/20 00:16:31;;;;;;;0.88;0.52;;;4.60;73.90;;;;;;4199970;28;20062;-83
2022/10/20 00:18:31;;;;;;;1.50;0.82;;;4.80;73.30;;;;;;4196813;28;20028;-84
2022/10/20 00:20:32;;;;;;;2.20;0.90;;;4.60;73.20;;;;;;4204080;28;20556;-84
2022/10/20 00:22:33;;;;;;;2.55;0.82;;;4.50;73.10;;;;;;4191913;28;20032;-83
2022/10/20 00:24:33;;;;;;;2.25;0.70;;;4.60;73.10;;;;;;4200645;28;20038;-83
2022/10/20 00:26:34;;;;;;;2.22;0.90;;;4.60;73.20;;;;;;4193958;28;20024;-82
2022/10/20 00:28:34;;;;;;;1.38;0.70;;;4.60;73.10;;;;;;4207176;28;20025;-83
2022/10/20 00:30:35;;;;;;;2.75;0.77;;;4.60;73.10;;;;;;4192991;28;20075;-83
2022/10/20 00:32:36;;;;;;;1.30;0.70;;;4.60;73.20;;;;;;4197348;28;20032;-83
2022/10/20 00:34:37;;;;;;;0.80;0.60;;;4.60;74.00;;;;;;4203049;28;20031;-84
2022/10/20 00:36:38;;;;;;;4.07;0.82;;;4.60;73.40;;;;;;4204340;28;20047;-83
2022/10/20 00:38:40;;;;;;;2.15;0.70;;;4.60;73.40;;;;;;4198458;28;20028;-82
2022/10/20 00:40:40;;;;;;;5.20;0.88;;;4.70;73.50;;;;;;4201349;28;20036;-84
2022/10/20 00:43:01;;;;;;;2.40;0.85;;;4.60;73.50;;;;;;4191158;28;20032;-83
2022/10/20 00:45:21;;;;;;;1.08;0.88;;;4.60;73.40;;;;;;4197876;28;20101;-82
2022/10/20 00:47:43;;;;;;;2.65;1.00;;;4.60;73.40;;;;;;4205151;28;20036;-83
2022/10/20 00:50:19;;;;;;;2.47;0.73;;;4.60;73.40;;;;;;4204440;28;20055;-82
2022/10/20 00:52:21;;;;;;;4.85;1.00;;;4.60;73.50;;;;;;4200737;28;20036;-83
2022/10/20 00:54:26;;;;;;;4.05;0.95;;;4.60;73.60;;;;;;4198043;28;20031;-83
2022/10/20 00:56:27;;;;;;;2.28;0.90;;;4.60;73.60;;;;;;4205131;28;20032;-83
2022/10/20 00:58:27;;;;;;;2.53;1.10;;;4.60;73.70;;;;;;4193404;28;20024;-84
2022/10/20 01:00:29;;;;;;;1.83;0.88;;;4.70;73.80;;;;;;4195986;28;20059;-83
2022/10/20 01:02:30;;;;;;;2.22;0.90;;;4.70;73.90;;;;;;4199754;28;20207;-82
2022/10/20 01:04:49;;;;;;;1.35;0.80;;;4.60;73.80;;;;;;4200706;28;20044;-83
2022/10/20 01:07:09;;;;;;;2.30;0.90;;;4.70;73.90;;;;;;4203118;28;20035;-82
2022/10/20 01:09:22;;;;;;;3.85;0.77;;;4.70;73.90;;;;;;4199552;28;20383;-83
2022/10/20 01:11:40;;;;;;;2.15;0.90;;;4.60;73.70;;;;;;4203960;28;20442;-83
2022/10/20 01:13:47;;;;;;;2.28;1.05;;;4.60;73.80;;;;;;4200665;28;20040;-83
2022/10/20 01:16:21;;;;;;;5.38;0.73;;;4.60;73.80;;;;;;4204336;28;20863;-83
2022/10/20 01:18:38;;;;;;;1.70;0.80;;;4.60;73.90;;;;;;4214330;28;20016;-83
2022/10/20 01:21:04;;;;;;;3.75;0.80;;;4.60;73.70;;;;;;4197795;28;21817;-83
2022/10/20 01:23:17;;;;;;;2.88;1.00;;;4.60;73.60;;;;;;4199238;28;20052;-83
2022/10/20 01:25:45;;;;;;;2.13;0.90;;;4.60;73.60;;;;;;4196995;28;20502;-82
2022/10/20 01:28:00;;;;;;;2.17;1.00;;;4.60;73.80;;;;;;4196160;28;20035;-82
2022/10/20 01:30:16;;;;;;;2.22;1.00;;;4.60;73.80;;;;;;4198378;28;20578;-83
2022/10/20 01:32:31;;;;;;;2.47;1.13;;;4.60;73.80;;;;;;4193081;28;20060;-83
2022/10/20 01:34:35;;;;;;;4.63;1.05;;;4.60;73.80;;;;;;4196456;28;20044;-82
2022/10/20 01:36:45;;;;;;;1.48;1.00;;;4.60;73.80;;;;;;4181986;28;20501;-82
2022/10/20 01:39:00;;;;;;;1.27;0.90;;;4.60;73.90;;;;;;4199591;28;20040;-83
2022/10/20 01:41:20;;;;;;;3.63;1.08;;;4.60;74.00;;;;;;4194782;28;20037;-83
2022/10/20 01:43:24;;;;;;;3.70;1.00;;;4.60;74.10;;;;;;4197423;28;20470;-82
2022/10/20 01:45:29;;;;;;;4.88;1.40;;;4.50;73.90;;;;;;4196223;28;20514;-82
2022/10/20 01:47:33;;;;;;;2.65;1.05;;;4.50;74.00;;;;;;4195782;28;20024;-82
2022/10/20 01:49:35;;;;;;;5.95;1.45;;;4.50;74.00;;;;;;4190947;28;20036;-83
2022/10/20 01:51:35;;;;;;;2.92;1.27;;;4.50;74.00;;;;;;4192675;28;20036;-81
2022/10/20 01:53:36;;;;;;;2.58;1.27;;;4.50;73.90;;;;;;4196929;28;20017;-83
2022/10/20 01:55:37;;;;;;;3.05;1.30;;;4.50;74.10;;;;;;4192713;28;20055;-83
2022/10/20 01:58:05;;;;;;;3.88;0.95;;;4.50;74.10;;;;;;4194127;28;20028;-82
2022/10/20 02:00:09;;;;;;;3.67;1.23;;;4.50;74.20;;;;;;4202809;28;20032;-83
2022/10/20 02:02:41;;;;;;;5.28;1.27;;;4.50;74.00;;;;;;4197952;28;20052;-83
2022/10/20 02:05:13;;;;;;;2.33;1.08;;;4.50;74.10;;;;;;4203787;28;20743;-83
2022/10/20 02:07:26;;;;;;;2.80;1.42;;;4.50;74.10;;;;;;4197284;28;20059;-82
2022/10/20 02:09:38;;;;;;;3.25;1.77;;;4.50;74.10;;;;;;4197711;28;20485;-83
2022/10/20 02:11:55;;;;;;;4.80;1.10;;;4.50;74.10;;;;;;4194793;28;20036;-83
2022/10/20 02:13:57;;;;;;;3.17;1.50;;;4.40;74.20;;;;;;4183314;28;20440;-83
2022/10/20 02:16:03;;;;;;;2.03;1.00;;;4.40;74.20;;;;;;4192801;28;20015;-83
2022/10/20 02:18:06;;;;;;;4.38;1.40;;;4.40;74.20;;;;;;4191125;28;20025;-82
2022/10/20 02:20:09;;;;;;;2.83;1.40;;;4.40;74.10;;;;;;4189989;28;20468;-82
2022/10/20 02:22:12;;;;;;;2.70;1.20;;;4.40;74.20;;;;;;4179601;28;20025;-82
2022/10/20 02:24:14;;;;;;;2.90;1.20;;;4.40;74.30;;;;;;4194824;28;20516;-83
2022/10/20 02:26:18;;;;;;;5.10;1.43;;;4.40;74.40;;;;;;4196173;28;20071;-82
2022/10/20 02:28:20;;;;;;;3.13;1.30;;;4.40;74.50;;;;;;4193256;28;20293;-83
2022/10/20 02:30:21;;;;;;;2.58;1.33;;;4.40;74.50;;;;;;4194714;28;20035;-83
2022/10/20 02:32:23;;;;;;;2.17;1.20;;;4.40;74.40;;;;;;4201656;28;20020;-82
2022/10/20 02:34:27;;;;;;;3.75;1.40;;;4.40;74.50;;;;;;4198289;28;20025;-83
2022/10/20 02:36:29;;;;;;;3.92;1.55;;;4.40;74.50;;;;;;4199949;28;20024;-82
2022/10/20 02:38:30;;;;;;;5.03;1.60;;;4.40;74.50;;;;;;4198975;28;20086;-83
2022/10/20 02:40:30;;;;;;;1.50;1.08;;;4.40;74.40;;;;;;4198320;28;20024;-83
2022/10/20 02:42:31;;;;;;;1.90;1.30;;;4.30;74.20;;;;;;4203121;28;20027;-83
2022/10/20 02:44:32;;;;;;;2.83;1.20;;;4.30;74.10;;;;;;4202075;28;20024;-82
2022/10/20 02:46:33;;;;;;;5.78;1.23;;;4.30;74.20;;;;;;4201005;28;20048;-83
2022/10/20 02:48:34;;;;;;;4.07;1.50;;;4.30;74.40;;;;;;4201258;28;20696;-83
2022/10/20 02:50:35;;;;;;;4.22;1.35;;;4.30;74.40;;;;;;4197536;28;20150;-82
2022/10/20 02:52:37;;;;;;;2.83;1.50;;;4.30;74.50;;;;;;4198993;28;20876;-82
2022/10/20 02:54:37;;;;;;;2.03;1.30;;;4.30;74.70;;;;;;4202583;28;20016;-83
2022/10/20 02:56:38;;;;;;;1.92;1.30;;;4.30;74.80;;;;;;4198650;28;20112;-82
2022/10/20 02:58:39;;;;;;;3.28;2.03;;;4.30;74.90;;;;;;4197133;28;20024;-82
2022/10/20 03:00:40;;;;;;;2.47;1.30;;;4.30;75.00;;;;;;4207336;28;20027;-83
2022/10/20 03:03:00;;;;;;;4.70;1.33;;;4.40;75.10;;;;;;4197544;28;20036;-83
2022/10/20 03:05:02;;;;;;;2.65;1.40;;;4.30;75.10;;;;;;4188707;28;20078;-82
2022/10/20 03:07:22;;;;;;;3.47;1.52;;;4.30;75.10;;;;;;4198302;28;20565;-84
2022/10/20 03:09:23;;;;;;;3.35;1.50;;;4.40;75.20;;;;;;4198831;28;20093;-83
2022/10/20 03:11:35;;;;;;;3.10;1.35;;;4.30;75.10;;;;;;4199424;28;20099;-82
2022/10/20 03:13:35;;;;;;;2.63;1.33;;;4.30;75.10;;;;;;4174547;28;20116;-83
2022/10/20 03:15:36;;;;;;;2.63;1.10;;;4.30;75.10;;;;;;4195511;28;20028;-83
2022/10/20 03:17:57;;;;;;;2.70;1.30;;;4.30;75.10;;;;;;4197201;28;20029;-83
2022/10/20 03:20:18;;;;;;;2.50;1.50;;;4.30;75.10;;;;;;4196602;28;20111;-83
2022/10/20 03:22:19;;;;;;;2.97;1.50;;;4.30;75.00;;;;;;4178464;28;20060;-84
2022/10/20 03:24:27;;;;;;;6.07;1.75;;;4.40;75.10;;;;;;4203193;28;20089;-83
2022/10/20 03:26:33;;;;;;;4.38;1.67;;;4.30;75.20;;;;;;4196237;28;20019;-82
2022/10/20 03:28:54;;;;;;;2.90;1.48;;;4.30;75.30;;;;;;4196272;28;20055;-83
2022/10/20 03:31:15;;;;;;;6.25;1.73;;;4.30;75.30;;;;;;4197576;28;20032;-83
2022/10/20 03:33:16;;;;;;;4.38;1.70;;;4.30;75.30;;;;;;4200422;28;20033;-82
2022/10/20 03:35:36;;;;;;;3.13;1.30;;;4.30;75.40;;;;;;4195583;28;20036;-82
2022/10/20 03:37:57;;;;;;;2.70;1.17;;;4.30;75.50;;;;;;4201757;28;20104;-83
2022/10/20 03:40:18;;;;;;;4.30;1.40;;;4.30;75.40;;;;;;4197511;28;20102;-84
2022/10/20 03:42:38;;;;;;;5.40;1.60;;;4.30;75.30;;;;;;4195696;28;20029;-83
2022/10/20 03:44:59;;;;;;;3.25;1.60;;;4.30;75.10;;;;;;4188516;28;20052;-84
2022/10/20 03:47:19;;;;;;;5.93;1.80;;;4.30;75.20;;;;;;4209109;28;20435;-83
2022/10/20 03:49:40;;;;;;;4.03;1.58;;;4.20;75.20;;;;;;4192653;28;20119;-83
2022/10/20 03:52:01;;;;;;;5.20;1.55;;;4.20;75.30;;;;;;4194612;28;20507;-83
2022/10/20 03:54:21;;;;;;;2.53;1.40;;;4.20;75.30;;;;;;4202042;28;20123;-83
2022/10/20 03:56:42;;;;;;;6.47;1.58;;;4.20;75.30;;;;;;4197760;28;20377;-83
2022/10/20 03:59:02;;;;;;;3.45;1.42;;;4.20;75.40;;;;;;4200401;28;20354;-84
2022/10/20 04:01:28;;;;;;;3.63;1.50;;;4.20;75.30;;;;;;4199242;28;20399;-83
2022/10/20 04:03:49;;;;;;;4.15;1.52;;;4.20;75.30;;;;;;4194925;28;20040;-84
2022/10/20 04:06:14;;;;;;;2.13;1.40;;;4.20;75.30;;;;;;4197312;28;20037;-82
2022/10/20 04:08:35;;;;;;;2.63;1.38;;;4.20;75.10;;;;;;4202980;28;20435;-83
2022/10/20 04:10:57;;;;;;;2.47;1.55;;;4.20;75.10;;;;;;4200716;28;20684;-84
2022/10/20 04:13:17;;;;;;;2.50;1.30;;;4.20;75.20;;;;;;4200039;28;20372;-83
2022/10/20 04:15:38;;;;;;;6.75;1.88;;;4.10;75.20;;;;;;4189524;28;20131;-82
2022/10/20 04:17:58;;;;;;;2.30;1.20;;;4.10;75.30;;;;;;4189087;28;20539;-83
2022/10/20 04:20:19;;;;;;;4.38;1.50;;;4.10;75.30;;;;;;4189143;28;20036;-83
2022/10/20 04:22:40;;;;;;;3.97;1.30;;;4.10;75.30;;;;;;4200847;28;20394;-84
2022/10/20 04:25:01;;;;;;;2.30;1.40;;;4.10;75.30;;;;;;4194984;28;20062;-83
2022/10/20 04:27:21;;;;;;;5.05;1.38;;;4.10;75.40;;;;;;4201604;28;20024;-83
2022/10/20 04:29:42;;;;;;;3.20;1.40;;;4.10;75.50;;;;;;4197827;28;20434;-83
2022/10/20 04:32:03;;;;;;;2.30;1.38;;;4.10;75.60;;;;;;4191920;28;20025;-82
2022/10/20 04:34:23;;;;;;;2.03;1.00;;;4.10;75.60;;;;;;4197469;28;20032;-82
2022/10/20 04:36:44;;;;;;;2.80;1.23;;;4.10;75.50;;;;;;4190836;28;20559;-83
2022/10/20 04:39:06;;;;;;;5.20;1.40;;;4.10;75.50;;;;;;4193357;28;20466;-82
2022/10/20 04:41:27;;;;;;;1.75;0.90;;;4.10;75.60;;;;;;4192484;28;20573;-82
2022/10/20 04:43:51;;;;;;;2.35;1.20;;;4.10;75.70;;;;;;4197788;28;20411;-83
2022/10/20 04:46:12;;;;;;;2.10;1.10;;;4.10;75.70;;;;;;4195750;28;20396;-84
2022/10/20 04:48:33;;;;;;;2.35;1.00;;;4.10;75.70;;;;;;4194225;28;20290;-84
2022/10/20 04:51:05;;;;;;;4.28;1.20;;;4.10;75.70;;;;;;4191651;28;20396;-83
2022/10/20 04:53:26;;;;;;;3.58;1.30;;;4.10;75.80;;;;;;4190176;28;20393;-82
2022/10/20 04:55:53;;;;;;;3.67;1.23;;;4.10;75.90;;;;;;4193393;28;20452;-83
2022/10/20 04:58:14;;;;;;;4.53;1.20;;;4.10;75.80;;;;;;4194383;28;20390;-82
2022/10/20 05:00:36;;;;;;;2.60;1.25;;;4.10;75.80;;;;;;4196146;28;20060;-83
2022/10/20 05:02:57;;;;;;;2.78;1.40;;;4.10;75.80;;;;;;4192207;28;20115;-83
2022/10/20 05:05:17;;;;;;;4.60;1.27;;;4.10;75.90;;;;;;4201773;28;20028;-82
2022/10/20 05:07:38;;;;;;;2.30;1.00;;;4.10;75.90;;;;;;4196976;28;20036;-83
2022/10/20 05:09:59;;;;;;;3.15;1.02;;;4.10;76.00;;;;;;4201383;28;20389;-83
2022/10/20 05:12:19;;;;;;;2.30;1.30;;;4.10;76.00;;;;;;4199043;28;20466;-83
2022/10/20 05:14:40;;;;;;;1.63;0.98;;;4.10;76.00;;;;;;4198568;28;20404;-82
2022/10/20 05:17:00;;;;;;;2.08;1.10;;;4.10;76.10;;;;;;4202129;28;20042;-83
2022/10/20 05:19:21;;;;;;;4.07;1.35;;;4.10;76.00;;;;;;4207535;28;20463;-83
2022/10/20 05:21:42;;;;;;;2.53;1.10;;;4.10;75.90;;;;;;4199757;28;20059;-83
2022/10/20 05:24:03;;;;;;;5.20;1.30;;;4.00;75.90;;;;;;4198293;28;20136;-83
2022/10/20 05:26:23;;;;;;;7.65;2.00;;;4.00;75.90;;;;;;4200210;28;20066;-83
2022/10/20 05:28:45;;;;;;;7.90;2.10;;;4.00;76.00;;;;;;4201776;28;20465;-83
2022/10/20 05:31:06;;;;;;;3.75;1.63;;;4.00;76.00;;;;;;4201351;28;20178;-83
2022/10/20 05:33:22;;;;;;;3.53;1.73;;;4.00;76.00;;;;;;4202370;28;20105;-84
2022/10/20 05:35:41;;;;;;;6.15;3.75;;;4.00;76.00;;;;;;4199894;28;20116;-83
2022/10/20 05:38:01;;;;;;;12.13;7.68;;;4.00;76.00;;;;;;4201551;28;20039;-83
2022/10/20 05:40:20;;;;;;;10.20;6.57;;;4.00;76.00;;;;;;4197902;28;20098;-82
2022/10/20 05:42:40;;;;;;;8.10;6.20;;;4.00;76.00;;;;;;4198800;28;20083;-84
2022/10/20 05:44:59;;;;;;;9.70;4.55;;;4.00;75.90;;;;;;4199856;28;20030;-83
2022/10/20 05:47:18;;;;;;;8.40;4.32;;;3.90;75.80;;;;;;4201765;28;20031;-84
2022/10/20 05:49:37;;;;;;;7.57;2.58;;;3.90;76.60;;;;;;4205878;28;20108;-83
2022/10/20 05:51:56;;;;;;;3.60;2.47;;;3.90;75.80;;;;;;4204428;28;20042;-83
2022/10/20 05:54:15;;;;;;;4.53;1.85;;;3.90;75.70;;;;;;4201206;28;20088;-83
2022/10/20 05:56:34;;;;;;;2.63;1.85;;;3.90;75.70;;;;;;4192632;28;20071;-83
2022/10/20 05:58:53;;;;;;;3.85;1.80;;;3.80;75.80;;;;;;4194980;28;20107;-83
2022/10/20 06:01:20;;;;;;;3.47;1.95;;;3.80;76.00;;;;;;4200933;28;20041;-84
2022/10/20 06:03:39;;;;;;;4.03;1.83;;;3.80;76.20;;;;;;4196442;28;20100;-83
2022/10/20 06:06:00;;;;;;;5.03;1.50;;;3.80;76.40;;;;;;4202536;28;20388;-84
2022/10/20 06:08:19;;;;;;;6.53;1.45;;;3.80;76.40;;;;;;4207364;28;20028;-83
2022/10/20 06:10:38;;;;;;;4.70;1.35;;;3.80;76.60;;;;;;4197175;28;20056;-83
2022/10/20 06:12:57;;;;;;;4.40;1.73;;;3.90;76.80;;;;;;4200992;28;20043;-83
2022/10/20 06:15:16;;;;;;;2.45;1.10;;;3.90;76.90;;;;;;4204655;28;20395;-82
2022/10/20 06:17:36;;;;;;;6.47;1.30;;;3.90;76.90;;;;;;4200422;28;20043;-84
2022/10/20 06:19:55;;;;;;;4.07;1.60;;;3.90;76.90;;;;;;4202247;28;20042;-82
2022/10/20 06:22:14;;;;;;;2.53;1.30;;;3.90;76.90;;;;;;4198263;28;20036;-83
2022/10/20 06:24:33;;;;;;;3.53;1.27;;;3.90;76.90;;;;;;4199249;28;20122;-83
2022/10/20 06:26:52;;;;;;;4.72;1.35;;;3.90;76.90;;;;;;4212476;28;20042;-83
2022/10/20 06:29:15;;;;;;;3.30;1.33;;;4.00;77.00;;;;;;4202223;28;20094;-83
2022/10/20 06:31:40;;;;;;;3.15;1.45;;;4.00;77.10;;;;;;4204587;28;20036;-83
2022/10/20 06:34:00;;;;;;;3.90;1.55;;;4.00;77.30;;;;;;4195582;28;20750;-83
2022/10/20 06:36:21;;;;;;;2.30;1.40;;;4.00;77.50;;;;;;4201349;28;20035;-83
2022/10/20 06:38:41;;;;;;;3.55;1.30;;;4.10;77.80;;;;;;4200975;28;20081;-83
2022/10/20 06:41:01;;;;;;;2.75;1.13;;;4.10;78.00;;;;;;4204565;28;20405;-84
2022/10/20 06:43:21;;;;;;;5.38;1.30;;;4.20;78.30;;;;;;4198172;28;20035;-83
2022/10/20 06:45:40;;;;;;;4.30;1.40;;;4.20;78.50;;;;;;4191520;28;20670;-83
2022/10/20 06:48:00;;;;;;;3.03;1.60;;;4.30;78.70;;;;;;4201866;28;20059;-83
2022/10/20 06:50:19;;;;;;;6.35;1.42;;;4.30;79.10;;;;;;4196374;28;20504;-83
2022/10/20 06:52:38;;;;;;;4.43;1.67;;;4.40;79.20;;;;;;4198401;28;20098;-83
2022/10/20 06:54:57;;;;;;;3.70;1.38;;;4.50;79.30;;;;;;4188260;28;20091;-83
2022/10/20 06:57:16;;;;;;;5.47;1.80;;;4.60;79.40;;;;;;4194477;28;20119;-84
2022/10/20 06:59:37;;;;;;;3.95;1.63;;;4.60;79.50;;;;;;4191337;28;20528;-83
2022/10/20 07:01:56;;;;;;;2.20;1.23;;;4.70;79.70;;;;;;4195854;28;20070;-84
2022/10/20 07:04:16;;;;;;;5.60;1.67;;;4.80;79.80;;;;;;4200685;28;20039;-83
2022/10/20 07:06:38;;;;;;;6.47;1.60;;;4.90;79.90;;;;;;4201464;28;20040;-83
2022/10/20 07:08:58;;;;;;;2.50;1.30;;;4.90;80.00;;;;;;4198787;28;20124;-83
2022/10/20 07:11:20;;;;;;;4.40;1.27;;;5.00;80.10;;;;;;4196348;28;20039;-83
2022/10/20 07:13:40;;;;;;;9.13;1.60;;;5.10;80.20;;;;;;4201887;28;20166;-83
2022/10/20 07:15:59;;;;;;;2.40;1.17;;;5.20;80.20;;;;;;4196603;28;20047;-83
2022/10/20 07:18:19;;;;;;;4.00;1.50;;;5.20;80.30;;;;;;4195628;28;20032;-83
2022/10/20 07:20:38;;;;;;;3.53;1.67;;;5.30;80.50;;;;;;4194647;28;20573;-84
2022/10/20 07:22:57;;;;;;;9.25;1.77;;;5.40;80.60;;;;;;4192822;28;20399;-84
2022/10/20 07:25:20;;;;;;;3.90;1.65;;;5.50;80.70;;;;;;4196352;28;20446;-83
2022/10/20 07:27:39;;;;;;;3.65;1.50;;;5.50;80.90;;;;;;4193721;28;20043;-84
2022/10/20 07:29:58;;;;;;;5.10;1.70;;;5.60;81.10;;;;;;4206554;28;20038;-83
2022/10/20 07:32:17;;;;;;;4.13;1.30;;;5.70;81.10;;;;;;4197919;28;20094;-83
2022/10/20 07:34:36;;;;;;;6.63;1.30;;;5.80;81.30;;;;;;4196757;28;20114;-83
2022/10/20 07:36:56;;;;;;;4.20;1.48;;;5.90;81.60;;;;;;4196585;28;20125;-83
2022/10/20 07:39:15;;;;;;;4.00;1.35;;;6.00;81.60;;;;;;4201543;28;20031;-83
2022/10/20 07:41:36;;;;;;;5.72;1.85;;;6.00;81.70;;;;;;4202431;28;20031;-83
2022/10/20 07:43:56;;;;;;;8.68;2.55;;;6.20;81.90;;;;;;4211166;28;20074;-84
2022/10/20 07:46:16;;;;;;;18.63;4.57;;;6.30;82.00;;;;;;4213275;28;20081;-83
2022/10/20 07:48:36;;;;;;;7.55;2.15;;;6.30;82.30;;;;;;4205196;28;20030;-83
2022/10/20 07:51:21;;;;;;;6.10;2.05;;;6.40;82.30;;;;;;4205159;28;20125;-84
2022/10/20 07:53:40;;;;;;;7.07;1.65;;;6.60;82.60;;;;;;4198933;28;20120;-83
2022/10/20 07:55:59;;;;;;;5.80;1.30;;;6.70;82.80;;;;;;4196023;28;20039;-84
2022/10/20 07:58:18;;;;;;;7.32;1.45;;;6.90;82.70;;;;;;4202584;28;20089;-84
2022/10/20 08:00:37;;;;;;;2.45;1.33;;;6.90;82.50;;;;;;4196914;28;20035;-82
2022/10/20 08:02:56;;;;;;;7.68;1.52;;;7.00;82.70;;;;;;4193873;28;20062;-83
2022/10/20 08:05:15;;;;;;;3.83;1.30;;;7.10;82.60;;;;;;4206616;28;20039;-84
2022/10/20 08:07:34;;;;;;;7.10;1.50;;;7.20;82.70;;;;;;4201866;28;20038;-83
2022/10/20 08:09:53;;;;;;;4.18;1.50;;;7.20;82.90;;;;;;4201982;28;20031;-83
2022/10/20 08:12:13;;;;;;;4.10;1.45;;;7.40;82.70;;;;;;4199841;28;20082;-83
2022/10/20 08:14:34;;;;;;;3.95;1.75;;;7.40;82.60;;;;;;4192786;28;20511;-83
2022/10/20 08:16:53;;;;;;;4.45;1.30;;;7.50;82.70;;;;;;4203034;28;20031;-83
2022/10/20 08:19:13;;;;;;;6.18;1.60;;;7.60;82.70;;;;;;4194476;28;20047;-83
2022/10/20 08:21:32;;;;;;;3.33;1.58;;;7.70;82.90;;;;;;4198905;28;20086;-83
2022/10/20 08:23:51;;;;;;;3.88;1.65;;;7.80;83.20;;;;;;4192016;28;20050;-83
2022/10/20 08:26:12;;;;;;;2.92;1.40;;;7.90;83.00;;;;;;4195269;28;20032;-83
2022/10/20 08:28:31;;;;;;;4.78;1.70;;;8.00;83.00;;;;;;4193318;28;20083;-83
2022/10/20 08:30:51;;;;;;;3.40;1.50;;;8.10;83.20;;;;;;4195467;28;20055;-84
2022/10/20 08:33:10;;;;;;;3.38;1.42;;;8.30;82.90;;;;;;4196252;28;20787;-83
2022/10/20 08:35:29;;;;;;;9.32;1.70;;;8.20;82.70;;;;;;4188875;28;20051;-83
2022/10/20 08:37:48;;;;;;;8.10;1.58;;;8.30;82.50;;;;;;4190975;28;20063;-83
2022/10/20 08:40:13;;;;;;;4.53;1.70;;;8.40;82.30;;;;;;4192707;28;20114;-82
2022/10/20 08:42:38;;;;;;;10.45;1.38;;;8.40;82.00;;;;;;4187535;28;20091;-83
2022/10/20 08:44:59;;;;;;;5.85;1.40;;;8.60;82.00;;;;;;4190186;28;20043;-83
2022/10/20 08:47:26;;;;;;;3.15;1.60;;;8.60;81.80;;;;;;4191646;28;20032;-83
2022/10/20 08:49:45;;;;;;;3.58;1.60;;;8.70;81.60;;;;;;4195734;28;20043;-83
2022/10/20 08:52:11;;;;;;;6.28;1.60;;;8.80;81.50;;;;;;4189252;28;20032;-84
2022/10/20 08:54:33;;;;;;;8.77;1.20;;;8.80;81.40;;;;;;4195870;28;20393;-83
2022/10/20 08:56:52;;;;;;;6.15;1.45;;;8.90;81.40;;;;;;4192921;28;20044;-83
2022/10/20 08:59:28;;;;;;;7.95;1.45;;;9.10;81.20;;;;;;4190084;28;20252;-83
2022/10/20 09:01:47;;;;;;;4.78;1.23;;;9.10;80.70;;;;;;4195750;28;20090;-83
2022/10/20 09:04:20;;;;;;;4.63;0.98;;;9.10;80.30;;;;;;4193179;28;20039;-83
2022/10/20 09:06:42;;;;;;;4.47;1.60;;;9.20;79.90;;;;;;4189373;28;20097;-83
2022/10/20 09:09:02;;;;;;;6.35;1.73;;;9.20;79.70;;;;;;4196323;28;20384;-84
2022/10/20 09:11:26;;;;;;;5.30;1.42;;;9.30;79.40;;;;;;4202246;28;20081;-84
2022/10/20 09:13:46;;;;;;;6.85;1.73;;;9.30;79.00;;;;;;4198838;28;20070;-83
2022/10/20 09:16:12;;;;;;;3.67;1.33;;;9.40;78.60;;;;;;4204284;28;20039;-83
2022/10/20 09:18:33;;;;;;;8.80;1.70;;;9.40;78.00;;;;;;4198528;28;20234;-83
2022/10/20 09:20:54;;;;;;;7.68;1.45;;;9.50;77.60;;;;;;4203884;28;20039;-83
2022/10/20 09:23:16;;;;;;;10.80;2.25;;;9.70;77.40;;;;;;4197115;28;20716;-83
2022/10/20 09:25:36;;;;;;;4.25;1.42;;;9.60;76.90;;;;;;4195140;28;20174;-83
2022/10/20 09:27:55;;;;;;;5.55;1.30;;;9.70;76.50;;;;;;4188737;28;20062;-83
2022/10/20 09:30:17;;;;;;;7.57;1.25;;;9.80;76.30;;;;;;4204670;28;20036;-84
2022/10/20 09:32:36;;;;;;;6.28;1.33;;;9.80;75.90;;;;;;4189156;28;20048;-84
2022/10/20 09:35:25;;;;;;;5.28;1.13;;;9.90;75.80;;;;;;4206444;28;20474;-84
2022/10/20 09:37:26;;;;;;;6.05;1.40;;;9.90;75.20;;;;;;4194560;28;20025;-83
2022/10/20 09:39:30;;;;;;;5.45;1.50;;;9.90;74.90;;;;;;4191912;28;20687;-84
2022/10/20 09:41:34;;;;;;;5.20;1.00;;;10.10;74.50;;;;;;4197516;28;20016;-83
2022/10/20 09:43:39;;;;;;;3.63;1.30;;;10.00;74.00;;;;;;4206148;28;20051;-84
2022/10/20 09:45:51;;;;;;;2.80;1.02;;;10.20;73.90;;;;;;4171435;28;20026;-83
2022/10/20 09:47:55;;;;;;;3.75;1.42;;;10.20;73.70;;;;;;4200814;28;20046;-83
2022/10/20 09:50:02;;;;;;;4.43;1.23;;;10.20;73.50;;;;;;4195668;28;20025;-84
2022/10/20 09:52:17;;;;;;;6.63;1.17;;;10.20;73.30;;;;;;4208615;28;20511;-84
2022/10/20 09:54:19;;;;;;;1.85;1.02;;;10.30;73.00;;;;;;4195071;28;20408;-84
2022/10/20 09:56:29;;;;;;;5.13;1.10;;;10.30;72.80;;;;;;4197216;28;20174;-84
2022/10/20 09:58:33;;;;;;;4.55;1.35;;;10.30;72.70;;;;;;4194615;28;20028;-84
2022/10/20 10:00:44;;;;;;;1.92;1.02;;;10.60;72.60;;;;;;4200432;28;20325;-84
2022/10/20 10:02:45;;;;;;;1.88;0.75;;;10.50;72.30;;;;;;4197889;28;20024;-84
2022/10/20 10:04:48;;;;;;;2.47;1.10;;;10.60;71.60;;;;;;4198718;28;20029;-84
2022/10/20 10:06:48;;;;;;;;;;;10.50;71.40;;;;;;4199280;28;20376;-84
2022/10/20 10:08:49;;;;;;;6.90;1.10;;;10.70;71.40;;;;;;4201130;28;19908;-82
2022/10/20 10:11:00;;;;;;;2.92;1.05;;;10.60;71.30;;;;;;4194234;28;20051;-84
2022/10/20 10:13:02;;;;;;;8.13;1.27;;;10.60;70.50;;;;;;4202228;28;20404;-84
2022/10/20 10:15:25;;;;;;;3.83;1.13;;;10.60;70.20;;;;;;4199211;28;20392;-84
2022/10/20 10:17:38;;;;;;;4.18;1.20;;;10.60;70.20;;;;;;4196203;28;20127;-84
2022/10/20 10:19:39;;;;;;;2.38;1.00;;;10.70;70.10;;;;;;4199910;28;20032;-84
2022/10/20 10:21:46;;;;;;;6.55;1.10;;;10.80;70.20;;;;;;4195718;28;20033;-83
2022/10/20 10:23:59;;;;;;;4.50;1.10;;;10.80;70.10;;;;;;4191642;28;20571;-84
2022/10/20 10:26:00;;;;;;;7.43;1.30;;;11.00;70.20;;;;;;4210434;28;20033;-84
2022/10/20 10:28:18;;;;;;;3.60;1.08;;;10.90;69.90;;;;;;4190778;28;20225;-84
2022/10/20 10:30:30;;;;;;;4.38;0.95;;;11.00;69.40;;;;;;4195210;28;20025;-84
2022/10/20 10:32:31;;;;;;;5.75;1.65;;;11.00;69.10;;;;;;4201365;28;20028;-84
2022/10/20 10:34:45;;;;;;;3.03;1.10;;;11.10;68.80;;;;;;4200126;28;20058;-84
2022/10/20 10:36:46;;;;;;;3.03;1.30;;;11.10;68.60;;;;;;4182458;28;20036;-84
2022/10/20 10:38:47;;;;;;;4.75;1.27;;;11.10;68.00;;;;;;4203227;28;20816;-84
2022/10/20 10:41:14;;;;;;;6.43;1.42;;;11.20;68.30;;;;;;4173197;28;20021;-84
2022/10/20 10:43:49;;;;;;;7.82;1.40;;;11.20;67.60;;;;;;4195631;28;20042;-84
2022/10/20 10:46:01;;;;;;;9.15;1.42;;;11.20;67.70;;;;;;4194702;28;20028;-84
2022/10/20 10:48:52;;;;;;;3.33;1.00;;;11.30;66.60;;;;;;4198994;28;20028;-84
2022/10/20 10:51:15;;;;;;;4.47;1.10;;;11.30;66.80;;;;;;4194347;28;20031;-84
2022/10/20 10:53:38;;;;;;;4.70;1.65;;;11.40;67.00;;;;;;4182472;28;20163;-84
2022/10/20 10:56:02;;;;;;;5.53;1.20;;;11.30;67.10;;;;;;4200830;28;20025;-84
2022/10/20 10:58:55;;;;;;;3.33;1.20;;;11.40;66.50;;;;;;4196351;28;20113;-84
2022/10/20 11:01:28;;;;;;;3.95;1.33;;;11.40;67.00;;;;;;4191525;28;20532;-84
2022/10/20 11:03:49;;;;;;;2.00;1.17;;;11.40;67.20;;;;;;4168223;28;20032;-84
2022/10/20 11:06:29;;;;;;;3.47;1.40;;;11.50;66.80;;;;;;4195166;28;20025;-84
2022/10/20 11:09:16;;;;;;;3.30;1.38;;;11.60;66.70;;;;;;4195552;28;20028;-84
2022/10/20 11:11:45;;;;;;;2.30;1.20;;;11.50;66.10;;;;;;4195217;28;20617;-85
2022/10/20 11:14:34;;;;;;;4.25;1.48;;;11.60;65.90;;;;;;4195522;28;20157;-84
2022/10/20 11:17:12;;;;;;;8.13;1.48;;;11.60;65.80;;;;;;4196402;28;20150;-84
2022/10/20 11:20:02;;;;;;;5.70;1.20;;;11.60;65.50;;;;;;4197925;28;20118;-85
2022/10/20 11:22:53;;;;;;;4.07;1.23;;;11.70;65.40;;;;;;4207987;28;20023;-85
2022/10/20 11:25:38;;;;;;;9.75;1.30;;;11.70;65.70;;;;;;4193729;28;20107;-84
2022/10/20 11:27:57;;;;;;;4.60;1.30;;;11.70;64.80;;;;;;4186422;28;20124;-85
2022/10/20 11:30:21;;;;;;;4.28;1.35;;;11.70;64.70;;;;;;4184687;28;20020;-84
2022/10/20 11:33:17;;;;;;;3.58;1.50;;;11.80;64.90;;;;;;4188701;28;20440;-84
2022/10/20 11:35:39;;;;;;;2.65;1.02;;;11.70;64.80;;;;;;4177496;28;20417;-84
2022/10/20 11:38:25;;;;;;;5.63;1.00;;;11.80;65.10;;;;;;4174564;28;20029;-84
2022/10/20 11:40:58;;;;;;;8.40;1.10;;;11.70;64.60;;;;;;4164335;28;20265;-85
2022/10/20 11:43:26;;;;;;;5.35;1.30;;;11.90;64.80;;;;;;4185863;28;20503;-84
2022/10/20 11:46:04;;;;;;;7.82;1.40;;;11.80;64.20;;;;;;4182956;28;20025;-85
2022/10/20 11:48:30;;;;;;;5.22;1.08;;;11.90;64.40;;;;;;4181289;28;20017;-84
2022/10/20 11:51:04;;;;;;;4.35;0.88;;;11.80;64.60;;;;;;4184120;28;20028;-85
2022/10/20 11:53:57;;;;;;;5.70;1.08;;;11.90;64.40;;;;;;4179593;28;20025;-85
2022/10/20 11:56:26;;;;;;;4.28;1.10;;;11.90;64.30;;;;;;4164190;28;20052;-84
2022/10/20 11:59:03;;;;;;;3.42;1.23;;;12.00;63.70;;;;;;4177172;28;20036;-84